Terminal Aerodrome Forecast
Issued by NWS

Home | Current Version | Previous Version | Text Only | Print | Product List | Glossary On
Versions: 1 2 3 4 5 6 7 8 9 10 11 12 13 14 15 16 17
000
FTUS43 KABR 070523
TAFMBG
TAF
KMBG 070523Z 0706/0806 31020G32KT P6SM SCT250
     FM071600 32033G45KT P6SM BKN050
     FM080300 33027G35KT P6SM SKC=

USA.gov is the U.S. government's official web portal to all federal, state and local government web resources and services.